Time;durP1;ratioP1;P1;durP2;ratioP2;P2;SDS_P1;SDS_P2;PMS_P1;PMS_P2;Temp;Humidity;BMP_temperature;BMP_pressure;BME280_temperature;BME280_humidity;BME280_pressure;Samples;Min_cycle;Max_cycle;Signal;HPM_P1;HPM_P2
2022/03/11 00:02:16;;;;;;;18.15;10.38;;;;;;;;;;5061289;28;20132;-63
2022/03/11 00:04:44;;;;;;;20.83;11.63;;;;;;;;;;5055659;28;20133;-63
2022/03/11 00:07:10;;;;;;;17.60;10.73;;;;;;;;;;5066216;28;20490;-64
2022/03/11 00:09:36;;;;;;;23.45;10.15;;;;;;;;;;5059690;28;20091;-64
2022/03/11 00:12:02;;;;;;;19.08;10.60;;;;;;;;;;5054621;28;20221;-63
2022/03/11 00:14:28;;;;;;;16.75;10.93;;;;;;;;;;5054511;28;20122;-64
2022/03/11 00:16:55;;;;;;;21.73;11.38;;;;;;;;;;5052795;28;20037;-63
2022/03/11 00:19:21;;;;;;;18.50;10.75;;;;;;;;;;5059727;28;20435;-63
2022/03/11 00:21:47;;;;;;;19.92;11.45;;;;;;;;;;5056952;28;20069;-63
2022/03/11 00:24:13;;;;;;;17.23;11.30;;;;;;;;;;5063344;28;20062;-64
2022/03/11 00:26:39;;;;;;;18.20;11.05;;;;;;;;;;5060602;28;20045;-63
2022/03/11 00:29:05;;;;;;;18.90;11.30;;;;;;;;;;5062788;28;20468;-63
2022/03/11 00:31:31;;;;;;;19.40;11.32;;;;;;;;;;5057624;28;20175;-63
2022/03/11 00:33:59;;;;;;;19.73;11.07;;;;;;;;;;5057657;28;20032;-64
2022/03/11 00:36:25;;;;;;;21.48;11.70;;;;;;;;;;5055519;28;20101;-63
2022/03/11 00:38:51;;;;;;;18.70;11.20;;;;;;;;;;5057720;28;20135;-64
2022/03/11 00:41:17;;;;;;;17.92;10.80;;;;;;;;;;5071973;28;20037;-64
2022/03/11 00:43:43;;;;;;;22.88;11.35;;;;;;;;;;5053870;28;20064;-63
2022/03/11 00:46:10;;;;;;;18.85;10.95;;;;;;;;;;5056103;28;20059;-63
2022/03/11 00:48:36;;;;;;;20.48;11.40;;;;;;;;;;5054702;28;20037;-63
2022/03/11 00:51:02;;;;;;;16.13;9.65;;;;;;;;;;5055630;28;20407;-63
2022/03/11 00:53:28;;;;;;;17.23;10.60;;;;;;;;;;5055201;28;20381;-63
2022/03/11 00:55:55;;;;;;;21.00;11.65;;;;;;;;;;5055089;28;20450;-64
2022/03/11 00:58:21;;;;;;;19.17;10.75;;;;;;;;;;5053334;28;20041;-63
2022/03/11 01:00:47;;;;;;;19.02;11.18;;;;;;;;;;5051964;28;20055;-64
2022/03/11 01:03:14;;;;;;;18.05;10.68;;;;;;;;;;5040537;28;20491;-63
2022/03/11 01:05:40;;;;;;;16.55;10.10;;;;;;;;;;5040673;28;20132;-63
2022/03/11 01:08:06;;;;;;;20.63;10.25;;;;;;;;;;5055494;28;20037;-64
2022/03/11 01:10:32;;;;;;;17.40;10.32;;;;;;;;;;5056855;28;20122;-63
2022/03/11 01:12:58;;;;;;;22.27;10.70;;;;;;;;;;5051448;28;20059;-63
2022/03/11 01:15:24;;;;;;;16.17;10.85;;;;;;;;;;5053192;28;20051;-63
2022/03/11 01:17:51;;;;;;;15.70;9.82;;;;;;;;;;5051107;28;20456;-63
2022/03/11 01:20:17;;;;;;;21.75;10.60;;;;;;;;;;5055609;28;20037;-63
2022/03/11 01:22:43;;;;;;;20.85;10.68;;;;;;;;;;5056595;28;20478;-63
2022/03/11 01:25:09;;;;;;;15.75;9.95;;;;;;;;;;5051294;28;20423;-63
2022/03/11 01:27:37;;;;;;;16.70;10.00;;;;;;;;;;5051956;28;20429;-63
2022/03/11 01:30:04;;;;;;;16.02;10.02;;;;;;;;;;5043342;28;20503;-63
2022/03/11 01:32:30;;;;;;;19.00;10.02;;;;;;;;;;5053571;28;20049;-63
2022/03/11 01:34:56;;;;;;;19.65;10.43;;;;;;;;;;5053068;28;20059;-63
2022/03/11 01:37:22;;;;;;;15.82;8.90;;;;;;;;;;5055407;28;20048;-63
2022/03/11 01:39:48;;;;;;;15.05;9.32;;;;;;;;;;5065041;28;20099;-63
2022/03/11 01:42:15;;;;;;;18.83;10.23;;;;;;;;;;5068860;28;20396;-63
2022/03/11 01:44:42;;;;;;;14.18;8.80;;;;;;;;;;5061487;28;20085;-63
2022/03/11 01:47:08;;;;;;;15.25;10.07;;;;;;;;;;5054046;28;20523;-63
2022/03/11 01:49:34;;;;;;;16.15;9.75;;;;;;;;;;5045464;28;20412;-63
2022/03/11 01:52:00;;;;;;;12.93;7.88;;;;;;;;;;5059623;28;20116;-64
2022/03/11 01:54:26;;;;;;;16.40;8.57;;;;;;;;;;5056331;28;20064;-63
2022/03/11 01:56:53;;;;;;;14.55;8.65;;;;;;;;;;5062743;28;20087;-63
2022/03/11 01:59:20;;;;;;;15.85;8.90;;;;;;;;;;5056720;28;20044;-63
2022/03/11 02:01:46;;;;;;;15.50;8.63;;;;;;;;;;5058801;28;20052;-64
2022/03/11 02:04:12;;;;;;;14.40;8.85;;;;;;;;;;5062461;28;20081;-63
2022/03/11 02:06:38;;;;;;;15.75;8.32;;;;;;;;;;5049670;28;20049;-63
2022/03/11 02:09:06;;;;;;;13.40;8.13;;;;;;;;;;5038096;28;20183;-63
2022/03/11 02:11:32;;;;;;;14.55;8.50;;;;;;;;;;5039703;28;20048;-63
2022/03/11 02:13:59;;;;;;;20.33;8.48;;;;;;;;;;5040422;28;20041;-63
2022/03/11 02:16:33;;;;;;;17.40;8.70;;;;;;;;;;5051185;28;20202;-63
2022/03/11 02:18:59;;;;;;;15.48;8.82;;;;;;;;;;5057944;28;20129;-63
2022/03/11 02:21:27;;;;;;;15.90;8.88;;;;;;;;;;5048457;28;20167;-63
2022/03/11 02:23:54;;;;;;;14.90;8.05;;;;;;;;;;5052660;28;20053;-63
2022/03/11 02:26:21;;;;;;;16.73;7.95;;;;;;;;;;5051075;28;20037;-63
2022/03/11 02:28:48;;;;;;;16.42;7.93;;;;;;;;;;5065137;28;20059;-63
2022/03/11 02:31:16;;;;;;;15.00;8.18;;;;;;;;;;5054115;28;20055;-63
2022/03/11 02:33:42;;;;;;;18.58;8.25;;;;;;;;;;5049341;28;20051;-63
2022/03/11 02:36:09;;;;;;;15.95;8.85;;;;;;;;;;5068238;28;20123;-63
2022/03/11 02:38:36;;;;;;;12.55;7.63;;;;;;;;;;5066539;28;20052;-63
2022/03/11 02:41:02;;;;;;;14.27;8.60;;;;;;;;;;5062796;28;20102;-63
2022/03/11 02:43:28;;;;;;;15.43;8.63;;;;;;;;;;5067828;28;20041;-63
2022/03/11 02:45:55;;;;;;;16.13;9.27;;;;;;;;;;5058873;28;20045;-63
2022/03/11 02:48:21;;;;;;;14.10;8.20;;;;;;;;;;5068012;28;20470;-63
2022/03/11 02:50:47;;;;;;;14.40;8.45;;;;;;;;;;5069829;28;20058;-63
2022/03/11 02:53:13;;;;;;;14.88;7.85;;;;;;;;;;5066390;28;20128;-63
2022/03/11 02:55:40;;;;;;;16.25;8.98;;;;;;;;;;5052610;28;20053;-63
2022/03/11 02:58:06;;;;;;;17.08;8.60;;;;;;;;;;5058718;28;20136;-63
2022/03/11 03:00:32;;;;;;;15.27;9.20;;;;;;;;;;5056436;28;20048;-63
2022/03/11 03:02:58;;;;;;;15.77;8.93;;;;;;;;;;5061875;28;20375;-63
2022/03/11 03:05:24;;;;;;;18.55;8.75;;;;;;;;;;5055899;28;20388;-64
2022/03/11 03:07:51;;;;;;;17.13;8.98;;;;;;;;;;5058183;28;20164;-63
2022/03/11 03:10:17;;;;;;;16.33;8.85;;;;;;;;;;5061220;28;20045;-63
2022/03/11 03:12:43;;;;;;;14.32;8.48;;;;;;;;;;5052166;28;20378;-63
2022/03/11 03:15:09;;;;;;;18.67;9.48;;;;;;;;;;5050657;28;20205;-63
2022/03/11 03:17:36;;;;;;;13.55;8.55;;;;;;;;;;5049063;28;20542;-63
2022/03/11 03:20:03;;;;;;;20.00;8.90;;;;;;;;;;5055944;28;20044;-63
2022/03/11 03:22:29;;;;;;;14.77;8.60;;;;;;;;;;5051674;28;20208;-63
2022/03/11 03:24:55;;;;;;;17.98;8.98;;;;;;;;;;5053979;28;20041;-63
2022/03/11 03:27:22;;;;;;;18.58;9.93;;;;;;;;;;5059399;28;20488;-63
2022/03/11 03:29:48;;;;;;;18.63;9.90;;;;;;;;;;5062246;28;20041;-63
2022/03/11 03:32:14;;;;;;;16.63;9.15;;;;;;;;;;5057606;28;20136;-63
2022/03/11 03:34:40;;;;;;;19.52;9.52;;;;;;;;;;5060473;28;20044;-63
2022/03/11 03:37:08;;;;;;;21.05;9.95;;;;;;;;;;5061965;28;20457;-63
2022/03/11 03:39:35;;;;;;;16.52;10.10;;;;;;;;;;5057249;28;20048;-63
2022/03/11 03:42:01;;;;;;;18.77;9.98;;;;;;;;;;5060306;28;20040;-63
2022/03/11 03:44:27;;;;;;;17.45;10.23;;;;;;;;;;5055435;28;20094;-63
2022/03/11 03:46:53;;;;;;;18.17;10.40;;;;;;;;;;5060957;28;20048;-63
2022/03/11 03:49:19;;;;;;;19.75;11.05;;;;;;;;;;5060141;28;20084;-63
2022/03/11 03:51:46;;;;;;;20.25;10.38;;;;;;;;;;5057972;28;20103;-63
2022/03/11 03:54:12;;;;;;;16.95;10.63;;;;;;;;;;5060463;28;20067;-63
2022/03/11 03:56:39;;;;;;;16.88;9.75;;;;;;;;;;5060207;28;20514;-63
2022/03/11 03:59:06;;;;;;;17.88;10.63;;;;;;;;;;5056226;28;20117;-64
2022/03/11 04:01:34;;;;;;;16.73;10.57;;;;;;;;;;5057565;28;20390;-63
2022/03/11 04:04:00;;;;;;;20.48;10.18;;;;;;;;;;5058955;28;20393;-63
2022/03/11 04:06:28;;;;;;;22.65;11.48;;;;;;;;;;5059355;28;20550;-63
2022/03/11 04:08:56;;;;;;;19.10;10.77;;;;;;;;;;5060333;28;20052;-63
2022/03/11 04:11:23;;;;;;;16.65;11.07;;;;;;;;;;5059145;28;20076;-63
2022/03/11 04:13:50;;;;;;;20.30;11.25;;;;;;;;;;5056476;28;20132;-64
2022/03/11 04:16:17;;;;;;;22.60;11.77;;;;;;;;;;5056075;28;20106;-64
2022/03/11 04:18:43;;;;;;;19.88;11.43;;;;;;;;;;5047077;28;20037;-64
2022/03/11 04:21:09;;;;;;;23.70;13.35;;;;;;;;;;5047796;28;20451;-63
2022/03/11 04:23:35;;;;;;;24.55;12.35;;;;;;;;;;5046357;28;20088;-63
2022/03/11 04:26:02;;;;;;;20.58;11.75;;;;;;;;;;5052058;28;20408;-64
2022/03/11 04:28:28;;;;;;;23.00;10.77;;;;;;;;;;5059648;28;20066;-63
2022/03/11 04:30:54;;;;;;;18.70;11.48;;;;;;;;;;5060670;28;20079;-63
2022/03/11 04:33:21;;;;;;;23.30;12.32;;;;;;;;;;5058478;28;20124;-63
2022/03/11 04:35:47;;;;;;;19.50;11.15;;;;;;;;;;5057925;28;20052;-64
2022/03/11 04:38:14;;;;;;;19.27;11.60;;;;;;;;;;5056528;28;20040;-64
2022/03/11 04:40:40;;;;;;;23.08;12.55;;;;;;;;;;5058443;28;20044;-63
2022/03/11 04:43:06;;;;;;;29.25;13.80;;;;;;;;;;5061219;28;20045;-63
2022/03/11 04:45:32;;;;;;;22.98;12.15;;;;;;;;;;5062702;28;20538;-63
2022/03/11 04:47:58;;;;;;;24.80;13.30;;;;;;;;;;5063654;28;20364;-63
2022/03/11 04:50:25;;;;;;;24.55;13.95;;;;;;;;;;5062449;28;20045;-63
2022/03/11 04:52:52;;;;;;;20.40;12.30;;;;;;;;;;5056546;28;20190;-63
2022/03/11 04:55:18;;;;;;;23.50;13.63;;;;;;;;;;5058940;28;20133;-64
2022/03/11 04:57:44;;;;;;;20.52;12.65;;;;;;;;;;5060121;28;20392;-63
2022/03/11 05:00:11;;;;;;;48.72;14.82;;;;;;;;;;5059883;28;20033;-63
2022/03/11 05:02:38;;;;;;;24.15;13.68;;;;;;;;;;5058894;28;20056;-63
2022/03/11 05:05:06;;;;;;;25.33;14.35;;;;;;;;;;5057091;28;20111;-63
2022/03/11 05:07:32;;;;;;;24.75;13.68;;;;;;;;;;5058189;28;20076;-63
2022/03/11 05:09:58;;;;;;;24.35;13.93;;;;;;;;;;5054142;28;20041;-63
2022/03/11 05:12:24;;;;;;;23.58;14.30;;;;;;;;;;5057230;28;20044;-63
2022/03/11 05:14:51;;;;;;;26.17;14.57;;;;;;;;;;5055717;28;20443;-63
2022/03/11 05:17:17;;;;;;;26.08;14.68;;;;;;;;;;5056484;28;20045;-63
2022/03/11 05:19:44;;;;;;;25.73;13.60;;;;;;;;;;5069591;28;20048;-63
2022/03/11 05:22:11;;;;;;;26.40;14.88;;;;;;;;;;5062083;28;20045;-63
2022/03/11 05:24:37;;;;;;;26.17;14.27;;;;;;;;;;5062544;28;20496;-63
2022/03/11 05:27:04;;;;;;;26.88;15.20;;;;;;;;;;5056258;28;20049;-63
2022/03/11 05:29:31;;;;;;;22.25;13.10;;;;;;;;;;5046923;28;20083;-63
2022/03/11 05:31:57;;;;;;;24.58;14.90;;;;;;;;;;5061370;28;20051;-63
2022/03/11 05:34:24;;;;;;;27.08;15.57;;;;;;;;;;5060657;28;20049;-63
2022/03/11 05:36:50;;;;;;;27.73;16.27;;;;;;;;;;5064340;28;20056;-63
2022/03/11 05:39:16;;;;;;;24.48;14.38;;;;;;;;;;5061117;28;20040;-63
2022/03/11 05:41:42;;;;;;;31.88;17.25;;;;;;;;;;5061115;28;20080;-63
2022/03/11 05:44:08;;;;;;;29.08;15.63;;;;;;;;;;5058099;28;20047;-63
2022/03/11 05:46:35;;;;;;;29.10;15.93;;;;;;;;;;5057038;28;20063;-63
2022/03/11 05:49:01;;;;;;;28.60;15.10;;;;;;;;;;5061276;28;20112;-63
2022/03/11 05:51:27;;;;;;;26.88;15.45;;;;;;;;;;5062626;28;20041;-63
2022/03/11 05:53:53;;;;;;;27.30;16.08;;;;;;;;;;5069535;28;20075;-63
2022/03/11 05:56:20;;;;;;;30.35;17.02;;;;;;;;;;5048732;28;20496;-63
2022/03/11 05:58:46;;;;;;;28.42;15.88;;;;;;;;;;5050485;28;20096;-63
2022/03/11 06:01:13;;;;;;;24.52;15.25;;;;;;;;;;5052345;28;20049;-63
2022/03/11 06:03:39;;;;;;;26.40;15.63;;;;;;;;;;5055696;28;20037;-63
2022/03/11 06:06:05;;;;;;;27.80;15.80;;;;;;;;;;5052947;28;20097;-63
2022/03/11 06:08:31;;;;;;;27.77;16.08;;;;;;;;;;5041751;28;20091;-63
2022/03/11 06:10:58;;;;;;;27.73;17.05;;;;;;;;;;5046147;28;20045;-63
2022/03/11 06:13:24;;;;;;;29.27;16.88;;;;;;;;;;5048069;28;20127;-63
2022/03/11 06:15:50;;;;;;;28.00;17.02;;;;;;;;;;5047332;28;20086;-63
2022/03/11 06:18:18;;;;;;;27.35;16.52;;;;;;;;;;5055094;28;20047;-63
2022/03/11 06:20:45;;;;;;;28.77;17.15;;;;;;;;;;5055864;28;20060;-63
2022/03/11 06:23:11;;;;;;;28.38;15.77;;;;;;;;;;5055014;28;20413;-63
2022/03/11 06:25:37;;;;;;;29.20;16.77;;;;;;;;;;5053466;28;20041;-63
2022/03/11 06:28:03;;;;;;;30.10;16.70;;;;;;;;;;5051161;28;20033;-63
2022/03/11 06:30:30;;;;;;;32.70;16.70;;;;;;;;;;5049953;28;20136;-64
2022/03/11 06:32:56;;;;;;;28.80;16.52;;;;;;;;;;5073913;28;20045;-64
2022/03/11 06:35:22;;;;;;;29.48;15.82;;;;;;;;;;5044690;28;20140;-63
2022/03/11 06:37:50;;;;;;;31.05;15.90;;;;;;;;;;5031277;28;20436;-64
2022/03/11 06:40:17;;;;;;;31.80;16.42;;;;;;;;;;5065856;28;20055;-64
2022/03/11 06:42:44;;;;;;;25.52;16.20;;;;;;;;;;5047856;28;20041;-64
2022/03/11 06:45:11;;;;;;;27.38;16.40;;;;;;;;;;5030555;28;20136;-64
2022/03/11 06:47:37;;;;;;;31.70;16.23;;;;;;;;;;5031797;28;20082;-65
2022/03/11 06:50:04;;;;;;;29.77;15.70;;;;;;;;;;5030992;28;20067;-64
2022/03/11 06:52:30;;;;;;;31.95;16.50;;;;;;;;;;5031713;28;20037;-64
2022/03/11 06:54:56;;;;;;;27.70;15.35;;;;;;;;;;5031173;28;20057;-64
2022/03/11 06:57:22;;;;;;;26.40;16.42;;;;;;;;;;5029617;28;20485;-64
2022/03/11 06:59:49;;;;;;;27.58;16.58;;;;;;;;;;5030511;28;20418;-64
2022/03/11 07:02:16;;;;;;;29.80;16.42;;;;;;;;;;5036107;28;20155;-64
2022/03/11 07:04:42;;;;;;;28.33;16.08;;;;;;;;;;5047702;28;20041;-64
2022/03/11 07:07:08;;;;;;;30.70;16.48;;;;;;;;;;5050023;28;20231;-63
2022/03/11 07:09:35;;;;;;;31.17;16.42;;;;;;;;;;5047600;28;20049;-64
2022/03/11 07:12:03;;;;;;;28.70;16.98;;;;;;;;;;5049655;28;20045;-64
2022/03/11 07:14:29;;;;;;;30.90;16.35;;;;;;;;;;5049949;28;20104;-64
2022/03/11 07:16:56;;;;;;;26.38;15.57;;;;;;;;;;5081070;28;20488;-64
2022/03/11 07:19:24;;;;;;;28.25;16.05;;;;;;;;;;5048219;28;20051;-64
2022/03/11 07:21:50;;;;;;;24.92;15.63;;;;;;;;;;5043569;28;20034;-64
2022/03/11 07:24:16;;;;;;;28.00;16.88;;;;;;;;;;5034268;28;20041;-64
2022/03/11 07:26:42;;;;;;;27.30;17.15;;;;;;;;;;5034985;28;20492;-64
2022/03/11 07:29:09;;;;;;;29.27;17.20;;;;;;;;;;5033573;28;20041;-64
2022/03/11 07:31:35;;;;;;;30.38;17.30;;;;;;;;;;5035241;28;20044;-64
2022/03/11 07:34:01;;;;;;;29.17;16.67;;;;;;;;;;5035066;28;20512;-64
2022/03/11 07:36:27;;;;;;;27.88;16.95;;;;;;;;;;5034815;28;20124;-64
2022/03/11 07:38:54;;;;;;;27.55;16.05;;;;;;;;;;5034916;28;20081;-64
2022/03/11 07:41:20;;;;;;;28.80;17.25;;;;;;;;;;5046232;28;20045;-64
2022/03/11 07:43:47;;;;;;;30.05;16.35;;;;;;;;;;5034927;28;20116;-64
2022/03/11 07:46:14;;;;;;;30.15;16.85;;;;;;;;;;5044202;28;20037;-63
2022/03/11 07:48:41;;;;;;;28.10;16.45;;;;;;;;;;5034655;28;20045;-64
2022/03/11 07:51:08;;;;;;;28.55;16.40;;;;;;;;;;5067539;28;20046;-63
2022/03/11 07:53:34;;;;;;;26.67;15.63;;;;;;;;;;5051566;28;20060;-64
2022/03/11 07:56:00;;;;;;;28.17;16.25;;;;;;;;;;5053109;28;20115;-64
2022/03/11 07:58:27;;;;;;;26.50;15.45;;;;;;;;;;5053620;28;20397;-64
2022/03/11 08:00:53;;;;;;;28.30;16.20;;;;;;;;;;5053719;28;20375;-64
2022/03/11 08:03:20;;;;;;;25.60;16.50;;;;;;;;;;5054500;28;20037;-64
2022/03/11 08:05:46;;;;;;;26.38;16.75;;;;;;;;;;5054003;28;20045;-64
2022/03/11 08:08:12;;;;;;;28.02;16.02;;;;;;;;;;5052835;28;20128;-64
2022/03/11 08:10:39;;;;;;;27.70;16.33;;;;;;;;;;5036246;28;20045;-64
2022/03/11 08:13:06;;;;;;;29.17;15.90;;;;;;;;;;5052054;28;20044;-64
2022/03/11 08:15:33;;;;;;;31.20;15.90;;;;;;;;;;5053017;28;20465;-64
2022/03/11 08:17:59;;;;;;;28.70;16.08;;;;;;;;;;5053059;28;20118;-64
2022/03/11 08:20:25;;;;;;;27.02;15.43;;;;;;;;;;5053309;28;20128;-64
2022/03/11 08:22:51;;;;;;;28.33;15.55;;;;;;;;;;5052909;28;20061;-64
2022/03/11 08:25:20;;;;;;;26.20;14.27;;;;;;;;;;5054386;28;20118;-64
2022/03/11 08:27:47;;;;;;;29.83;16.13;;;;;;;;;;5053214;28;20492;-64
2022/03/11 08:30:13;;;;;;;27.55;15.63;;;;;;;;;;5053982;28;20045;-64
2022/03/11 08:32:40;;;;;;;24.92;14.05;;;;;;;;;;5053140;28;20045;-64
2022/03/11 08:35:07;;;;;;;27.33;15.57;;;;;;;;;;5052965;28;20337;-64
2022/03/11 08:37:35;;;;;;;24.70;15.63;;;;;;;;;;5052854;28;20052;-64
2022/03/11 08:40:01;;;;;;;24.35;14.77;;;;;;;;;;5053889;28;20071;-64
2022/03/11 08:42:27;;;;;;;29.27;16.48;;;;;;;;;;5051476;28;20057;-64
2022/03/11 08:44:53;;;;;;;26.15;14.73;;;;;;;;;;5053746;28;20064;-64
2022/03/11 08:47:19;;;;;;;29.50;16.15;;;;;;;;;;5052454;28;20049;-64
2022/03/11 08:49:45;;;;;;;26.20;15.27;;;;;;;;;;5052809;28;20068;-64
2022/03/11 08:52:12;;;;;;;25.60;15.07;;;;;;;;;;5053302;28;20083;-64
2022/03/11 08:54:38;;;;;;;30.63;15.32;;;;;;;;;;5050734;28;20064;-63
2022/03/11 08:57:04;;;;;;;32.92;16.73;;;;;;;;;;5032941;28;20041;-64
2022/03/11 08:59:31;;;;;;;26.95;14.65;;;;;;;;;;5032279;28;20045;-64
2022/03/11 09:01:57;;;;;;;24.40;14.48;;;;;;;;;;5033272;28;20061;-65
2022/03/11 09:04:23;;;;;;;24.73;14.88;;;;;;;;;;5032421;28;20039;-64
2022/03/11 09:06:50;;;;;;;29.45;14.60;;;;;;;;;;5033262;28;20485;-64
2022/03/11 09:09:16;;;;;;;24.92;14.85;;;;;;;;;;5032310;28;20481;-64
2022/03/11 09:11:42;;;;;;;26.40;14.07;;;;;;;;;;5033294;28;20051;-64
2022/03/11 09:14:08;;;;;;;23.15;15.15;;;;;;;;;;5034209;28;20115;-64
2022/03/11 09:16:34;;;;;;;23.38;13.77;;;;;;;;;;5050774;28;20373;-64
2022/03/11 09:19:01;;;;;;;29.75;15.40;;;;;;;;;;5051453;28;20040;-64
2022/03/11 09:21:28;;;;;;;28.13;16.40;;;;;;;;;;5050432;28;20037;-64
2022/03/11 09:23:54;;;;;;;26.90;14.98;;;;;;;;;;5050582;28;20565;-64
2022/03/11 09:26:20;;;;;;;25.05;14.93;;;;;;;;;;5050357;28;20049;-64
2022/03/11 09:28:47;;;;;;;22.85;13.82;;;;;;;;;;5051664;28;20124;-64
2022/03/11 09:31:14;;;;;;;28.45;15.60;;;;;;;;;;5047363;28;20088;-64
2022/03/11 09:33:40;;;;;;;27.13;15.25;;;;;;;;;;5037153;28;20048;-64
2022/03/11 09:36:07;;;;;;;23.75;14.43;;;;;;;;;;5050062;28;20048;-64
2022/03/11 09:38:36;;;;;;;29.95;16.02;;;;;;;;;;5049603;28;20048;-64
2022/03/11 09:41:03;;;;;;;23.50;13.65;;;;;;;;;;5050686;28;20044;-64
2022/03/11 09:43:30;;;;;;;23.85;14.68;;;;;;;;;;5034142;28;20041;-64
2022/03/11 09:45:57;;;;;;;24.92;15.02;;;;;;;;;;5031668;28;20136;-64
2022/03/11 09:48:24;;;;;;;24.15;14.68;;;;;;;;;;5032439;28;20038;-64
2022/03/11 09:50:50;;;;;;;28.08;15.30;;;;;;;;;;5032606;28;20049;-64
2022/03/11 09:53:16;;;;;;;24.50;14.90;;;;;;;;;;5039424;28;20092;-64
2022/03/11 09:55:43;;;;;;;23.42;14.18;;;;;;;;;;5050791;28;20064;-64
2022/03/11 09:58:09;;;;;;;23.65;14.30;;;;;;;;;;5050791;28;20126;-69
2022/03/11 10:00:36;;;;;;;22.58;14.73;;;;;;;;;;5049462;28;20516;-64
2022/03/11 10:03:02;;;;;;;24.50;15.35;;;;;;;;;;5050665;28;20115;-64
2022/03/11 10:05:44;;;;;;;22.55;14.70;;;;;;;;;;5037581;28;20029;-64
2022/03/11 10:08:10;;;;;;;26.10;15.48;;;;;;;;;;5033242;28;20480;-64
2022/03/11 10:10:37;;;;;;;22.63;14.35;;;;;;;;;;5032167;28;20068;-64
2022/03/11 10:13:03;;;;;;;24.83;16.38;;;;;;;;;;5031214;28;20124;-64
2022/03/11 10:15:30;;;;;;;28.15;15.48;;;;;;;;;;5030871;28;20042;-64
2022/03/11 10:17:57;;;;;;;27.70;14.65;;;;;;;;;;5030648;28;20056;-64
2022/03/11 10:20:25;;;;;;;27.40;17.10;;;;;;;;;;5031235;28;20152;-64
2022/03/11 10:22:51;;;;;;;31.65;17.60;;;;;;;;;;5032074;28;20041;-64
2022/03/11 10:25:19;;;;;;;33.20;19.80;;;;;;;;;;5049459;28;20086;-64
2022/03/11 10:28:04;;;;;;;25.42;15.70;;;;;;;;;;5049373;28;20045;-64
2022/03/11 10:30:32;;;;;;;26.60;15.13;;;;;;;;;;5050277;28;20053;-65
2022/03/11 10:32:59;;;;;;;31.17;16.15;;;;;;;;;;5039521;28;20472;-63
2022/03/11 10:35:34;;;;;;;25.60;16.15;;;;;;;;;;5030940;28;20066;-64
2022/03/11 10:38:03;;;;;;;24.80;16.00;;;;;;;;;;5039836;28;20044;-64
2022/03/11 10:40:30;;;;;;;27.23;16.40;;;;;;;;;;5050964;28;20408;-64
2022/03/11 10:43:14;;;;;;;22.00;14.65;;;;;;;;;;5051983;28;20374;-64
2022/03/11 10:45:51;;;;;;;24.58;15.43;;;;;;;;;;5051936;28;20377;-64
2022/03/11 10:48:19;;;;;;;25.42;15.52;;;;;;;;;;5049823;28;20400;-64
2022/03/11 10:50:45;;;;;;;23.30;15.30;;;;;;;;;;5051665;28;20051;-64
2022/03/11 10:53:12;;;;;;;28.52;15.45;;;;;;;;;;5051764;28;20056;-64
2022/03/11 10:55:40;;;;;;;25.00;15.73;;;;;;;;;;5051303;28;20057;-64
2022/03/11 10:58:07;;;;;;;30.55;17.83;;;;;;;;;;5051939;28;20052;-64
2022/03/11 11:00:35;;;;;;;31.98;17.08;;;;;;;;;;5038236;28;20060;-64
2022/03/11 11:03:03;;;;;;;32.90;17.55;;;;;;;;;;5035918;28;20052;-64
2022/03/11 11:05:30;;;;;;;29.48;16.83;;;;;;;;;;5052318;28;20048;-64
2022/03/11 11:07:57;;;;;;;27.35;16.48;;;;;;;;;;5053066;28;20127;-64
2022/03/11 11:10:24;;;;;;;28.25;17.20;;;;;;;;;;5052519;28;20037;-64
2022/03/11 11:12:51;;;;;;;25.88;15.80;;;;;;;;;;5049151;28;20041;-64
2022/03/11 11:15:18;;;;;;;28.58;16.90;;;;;;;;;;5053256;28;20052;-64
2022/03/11 11:17:45;;;;;;;27.95;17.33;;;;;;;;;;5051435;28;20048;-64
2022/03/11 11:20:31;;;;;;;26.15;17.88;;;;;;;;;;5042231;28;20046;-64
2022/03/11 11:22:58;;;;;;;26.52;16.00;;;;;;;;;;5032795;28;20441;-64
2022/03/11 11:25:24;;;;;;;26.35;16.67;;;;;;;;;;5033717;28;20077;-67
2022/03/11 11:27:52;;;;;;;23.95;16.20;;;;;;;;;;5051326;28;20455;-63
2022/03/11 11:30:19;;;;;;;25.38;15.77;;;;;;;;;;5052333;28;20087;-65
2022/03/11 11:32:46;;;;;;;26.52;17.60;;;;;;;;;;5050256;28;20046;-64
2022/03/11 11:35:23;;;;;;;26.23;16.25;;;;;;;;;;5034578;28;20053;-65
2022/03/11 11:37:49;;;;;;;27.77;17.23;;;;;;;;;;5034033;28;20152;-65
2022/03/11 11:40:19;;;;;;;29.98;18.13;;;;;;;;;;5042230;28;20516;-65
2022/03/11 11:43:04;;;;;;;24.85;17.58;;;;;;;;;;5052034;28;20110;-65
2022/03/11 11:45:49;;;;;;;28.02;17.52;;;;;;;;;;5051269;28;20114;-65
2022/03/11 11:48:33;;;;;;;23.25;16.85;;;;;;;;;;5034546;28;20041;-65
2022/03/11 11:51:01;;;;;;;23.38;16.25;;;;;;;;;;5033668;28;20052;-64
2022/03/11 11:53:40;;;;;;;22.80;16.42;;;;;;;;;;5040500;28;20128;-65
2022/03/11 11:56:25;;;;;;;22.05;15.85;;;;;;;;;;5051379;28;20150;-65
2022/03/11 11:58:52;;;;;;;22.65;17.40;;;;;;;;;;5065776;28;20060;-65
2022/03/11 12:01:37;;;;;;;26.17;16.67;;;;;;;;;;5035833;28;20048;-64
2022/03/11 12:04:21;;;;;;;23.90;16.80;;;;;;;;;;5035451;28;20045;-64
2022/03/11 12:06:55;;;;;;;25.27;17.42;;;;;;;;;;5042857;28;20034;-64
2022/03/11 12:09:45;;;;;;;26.00;16.33;;;;;;;;;;5040123;28;20049;-64
2022/03/11 12:12:15;;;;;;;25.55;17.02;;;;;;;;;;5044667;28;20199;-65
2022/03/11 12:15:08;;;;;;;22.70;15.52;;;;;;;;;;5047562;28;20086;-64
2022/03/11 12:17:37;;;;;;;22.20;15.93;;;;;;;;;;5037798;28;20046;-64
2022/03/11 12:20:22;;;;;;;24.15;16.15;;;;;;;;;;5048626;28;20080;-64
2022/03/11 12:22:52;;;;;;;21.65;15.48;;;;;;;;;;5045005;28;20485;-65
2022/03/11 12:25:21;;;;;;;22.98;16.70;;;;;;;;;;5050821;28;20485;-65
2022/03/11 12:28:07;;;;;;;22.30;16.17;;;;;;;;;;5040890;28;20045;-65
2022/03/11 12:30:39;;;;;;;21.30;16.15;;;;;;;;;;5072103;28;20138;-64
2022/03/11 12:33:07;;;;;;;25.40;17.30;;;;;;;;;;5045503;28;20049;-64
2022/03/11 12:35:34;;;;;;;21.65;15.13;;;;;;;;;;5053517;28;20138;-65
2022/03/11 12:38:00;;;;;;;23.58;16.30;;;;;;;;;;5048808;28;20045;-64
2022/03/11 12:40:27;;;;;;;23.20;16.05;;;;;;;;;;5048017;28;20610;-65
2022/03/11 12:42:58;;;;;;;27.80;17.98;;;;;;;;;;5049222;28;20045;-65
2022/03/11 12:45:30;;;;;;;27.05;15.90;;;;;;;;;;5049105;28;20606;-65
2022/03/11 12:47:56;;;;;;;25.13;16.27;;;;;;;;;;5049868;28;20350;-65
2022/03/11 12:50:22;;;;;;;24.98;16.23;;;;;;;;;;5048166;28;20045;-65
2022/03/11 12:52:49;;;;;;;21.83;15.77;;;;;;;;;;5049084;28;20053;-68
2022/03/11 12:55:25;;;;;;;22.77;16.30;;;;;;;;;;5081463;28;20044;-65
2022/03/11 12:57:52;;;;;;;22.25;16.17;;;;;;;;;;5050458;28;20408;-65
2022/03/11 13:00:22;;;;;;;23.60;16.48;;;;;;;;;;5051107;28;20408;-64
2022/03/11 13:02:49;;;;;;;22.88;16.42;;;;;;;;;;5055764;28;20049;-64
2022/03/11 13:05:19;;;;;;;23.17;16.38;;;;;;;;;;5051313;28;20036;-64
2022/03/11 13:07:45;;;;;;;28.20;16.27;;;;;;;;;;5053460;28;20381;-64
2022/03/11 13:10:14;;;;;;;22.05;15.50;;;;;;;;;;5054339;28;20119;-64
2022/03/11 13:12:40;;;;;;;20.75;15.27;;;;;;;;;;5052467;28;20175;-68
2022/03/11 13:15:11;;;;;;;24.90;15.32;;;;;;;;;;5047735;28;20140;-63
2022/03/11 13:17:41;;;;;;;20.80;14.30;;;;;;;;;;5077005;28;20040;-64
2022/03/11 13:20:08;;;;;;;22.88;15.77;;;;;;;;;;5051051;28;20395;-64
2022/03/11 13:22:34;;;;;;;22.60;14.75;;;;;;;;;;5049662;28;20435;-64
2022/03/11 13:25:03;;;;;;;20.05;15.20;;;;;;;;;;5045995;28;20535;-64
2022/03/11 13:27:36;;;;;;;27.25;14.65;;;;;;;;;;5048769;28;20423;-64
2022/03/11 13:30:05;;;;;;;21.80;14.30;;;;;;;;;;5047710;28;20060;-64
2022/03/11 13:32:31;;;;;;;21.45;14.45;;;;;;;;;;5040679;28;20042;-63
2022/03/11 13:34:57;;;;;;;21.13;14.18;;;;;;;;;;5044875;28;20124;-63
2022/03/11 13:37:23;;;;;;;23.33;16.35;;;;;;;;;;5045601;28;20033;-63
2022/03/11 13:40:06;;;;;;;24.90;15.68;;;;;;;;;;5045156;28;20056;-64
2022/03/11 13:42:33;;;;;;;23.20;14.90;;;;;;;;;;5040944;28;20133;-63
2022/03/11 13:45:05;;;;;;;22.85;14.70;;;;;;;;;;5047574;28;20385;-63
2022/03/11 13:47:32;;;;;;;19.48;13.23;;;;;;;;;;5041599;28;20374;-64
2022/03/11 13:50:06;;;;;;;19.98;14.60;;;;;;;;;;5048227;28;20051;-63
2022/03/11 13:52:39;;;;;;;23.38;14.65;;;;;;;;;;5045320;28;20447;-63
2022/03/11 13:55:10;;;;;;;21.48;14.60;;;;;;;;;;5048549;28;20044;-64
2022/03/11 13:57:38;;;;;;;22.75;14.60;;;;;;;;;;5038199;28;20391;-63
2022/03/11 14:00:18;;;;;;;21.45;13.75;;;;;;;;;;5044974;28;20131;-63
2022/03/11 14:02:44;;;;;;;23.10;14.70;;;;;;;;;;5047191;28;20044;-63
2022/03/11 14:05:13;;;;;;;22.17;14.60;;;;;;;;;;5046744;28;20032;-63
2022/03/11 14:07:40;;;;;;;21.15;13.43;;;;;;;;;;5052024;28;20087;-64
2022/03/11 14:10:27;;;;;;;21.35;14.40;;;;;;;;;;5049070;28;20500;-63
2022/03/11 14:13:00;;;;;;;23.20;14.75;;;;;;;;;;5047710;28;20126;-63
2022/03/11 14:15:31;;;;;;;23.23;14.23;;;;;;;;;;5046708;28;20456;-63
2022/03/11 14:17:57;;;;;;;23.30;16.50;;;;;;;;;;5080212;28;20163;-63
2022/03/11 14:20:23;;;;;;;24.90;16.13;;;;;;;;;;5048773;28;20120;-63
2022/03/11 14:22:49;;;;;;;27.75;17.35;;;;;;;;;;5049022;28;20118;-63